Time;durP1;ratioP1;P1;durP2;ratioP2;P2;SDS_P1;SDS_P2;PMS_P1;PMS_P2;Temp;Humidity;BMP_temperature;BMP_pressure;BME280_temperature;BME280_humidity;BME280_pressure;Samples;Min_cycle;Max_cycle;Signal;HPM_P1;HPM_P2
2023/02/19 00:00:57;;;;;;;;;;;5.30;99.90;;;;;;5089455;28;19953;-77
2023/02/19 00:03:23;;;;;;;;;;;5.50;99.90;;;;;;5089305;28;19904;-77
2023/02/19 00:05:49;;;;;;;;;;;5.60;99.90;;;;;;5088883;28;19912;-77
2023/02/19 00:08:14;;;;;;;;;;;5.70;99.90;;;;;;5089204;28;20003;-76
2023/02/19 00:10:40;;;;;;;;;;;5.80;99.90;;;;;;5089055;28;20276;-77
2023/02/19 00:13:05;;;;;;;;;;;;;;;;;;5089009;28;19934;-77
2023/02/19 00:15:31;;;;;;;;;;;;;;;;;;5089209;28;19907;-77
2023/02/19 00:17:57;;;;;;;;;;;6.00;99.90;;;;;;5088756;28;19904;-77
2023/02/19 00:20:22;;;;;;;;;;;6.00;99.70;;;;;;5088838;28;19985;-76
2023/02/19 00:22:48;;;;;;;;;;;6.00;99.90;;;;;;5088726;28;19923;-77
2023/02/19 00:25:13;;;;;;;;;;;6.20;99.70;;;;;;5088504;28;19954;-78
2023/02/19 00:27:39;;;;;;;;;;;6.20;99.80;;;;;;5089104;28;20642;-77
2023/02/19 00:30:05;;;;;;;;;;;6.20;99.90;;;;;;5088925;28;19914;-78
2023/02/19 00:32:30;;;;;;;;;;;6.30;99.90;;;;;;5088701;28;19908;-78
2023/02/19 00:34:56;;;;;;;;;;;;;;;;;;5088788;28;19904;-77
2023/02/19 00:37:21;;;;;;;;;;;6.30;99.90;;;;;;5089174;28;19908;-78
2023/02/19 00:39:47;;;;;;;;;;;6.20;99.30;;;;;;5086563;28;19904;-77
2023/02/19 00:42:12;;;;;;;;;;;6.20;99.30;;;;;;5089148;28;19949;-77
2023/02/19 00:44:38;;;;;;;;;;;6.10;99.50;;;;;;5086595;28;20387;-77
2023/02/19 00:47:03;;;;;;;;;;;6.20;99.70;;;;;;5089016;28;19914;-77
2023/02/19 00:49:29;;;;;;;;;;;;;;;;;;5088796;28;19904;-77
2023/02/19 00:51:55;;;;;;;;;;;;;;;;;;5092080;28;20510;-78
2023/02/19 00:54:24;;;;;;;;;;;6.30;99.90;;;;;;5092172;28;19907;-77
2023/02/19 00:56:50;;;;;;;;;;;;;;;;;;5092900;28;19904;-77
2023/02/19 00:59:15;;;;;;;;;;;6.40;99.90;;;;;;5092450;28;19961;-77
2023/02/19 01:01:43;;;;;;;;;;;6.40;99.90;;;;;;5091983;28;19904;-77
2023/02/19 01:04:08;;;;;;;;;;;6.30;99.90;;;;;;5092150;28;20003;-77
2023/02/19 01:06:34;;;;;;;;;;;6.40;99.90;;;;;;5092130;28;20027;-77
2023/02/19 01:08:59;;;;;;;;;;;6.50;99.90;;;;;;5091774;28;20348;-77
2023/02/19 01:11:26;;;;;;;;;;;;;;;;;;5092298;28;19908;-78
2023/02/19 01:13:51;;;;;;;;;;;6.60;99.90;;;;;;5092225;28;19911;-77
2023/02/19 01:16:21;;;;;;;;;;;6.70;99.90;;;;;;5092314;28;20359;-77
2023/02/19 01:18:46;;;;;;;;;;;6.70;99.90;;;;;;5091976;28;19904;-77
2023/02/19 01:21:13;;;;;;;;;;;6.60;99.60;;;;;;5089540;28;20455;-77
2023/02/19 01:23:39;;;;;;;;;;;6.60;99.90;;;;;;5091983;28;19950;-77
2023/02/19 01:26:05;;;;;;;;;;;6.60;99.90;;;;;;5091726;28;19963;-77
2023/02/19 01:28:31;;;;;;;;;;;6.50;99.90;;;;;;5090920;28;20272;-77
2023/02/19 01:30:59;;;;;;;;;;;6.50;99.90;;;;;;5091709;28;19910;-77
2023/02/19 01:33:25;;;;;;;;;;;6.60;99.90;;;;;;5091888;28;20392;-77
2023/02/19 01:35:50;;;;;;;;;;;6.60;99.90;;;;;;5091577;28;19904;-77
2023/02/19 01:38:16;;;;;;;;;;;6.70;99.90;;;;;;5091696;28;19904;-77
2023/02/19 01:40:41;;;;;;;;;;;6.80;99.60;;;;;;5091516;28;19904;-77
2023/02/19 01:43:14;;;;;;;;;;;6.90;99.90;;;;;;5091658;28;20334;-77
2023/02/19 01:45:43;;;;;;;;;;;6.90;99.80;;;;;;5091161;28;20380;-77
2023/02/19 01:48:21;;;;;;;;;;;6.90;99.90;;;;;;5091632;28;19915;-77
2023/02/19 01:50:49;;;;;;;;;;;6.90;99.90;;;;;;5090796;28;19904;-77
2023/02/19 01:53:17;;;;;;;;;;;6.90;99.90;;;;;;5083321;28;19908;-77
2023/02/19 01:55:44;;;;;;;;;;;6.90;99.90;;;;;;5090822;28;20454;-77
2023/02/19 01:58:10;;;;;;;;;;;6.90;99.90;;;;;;5091232;28;20002;-76
2023/02/19 02:00:35;;;;;;;;;;;6.90;99.90;;;;;;5091144;28;20003;-77
2023/02/19 02:03:01;;;;;;;;;;;6.80;99.90;;;;;;5090165;28;19904;-77
2023/02/19 02:05:34;;;;;;;;;;;6.80;99.90;;;;;;5090794;28;19919;-77
2023/02/19 02:10:45;;;;;;;;;;;6.80;99.90;;;;;;5091321;28;19922;-78
2023/02/19 02:13:11;;;;;;;;;;;6.90;99.90;;;;;;5090814;28;20006;-77
2023/02/19 02:15:42;;;;;;;;;;;7.00;99.90;;;;;;5091088;28;19908;-77
2023/02/19 02:18:07;;;;;;;;;;;7.10;99.90;;;;;;5090685;28;19908;-77
2023/02/19 02:20:51;;;;;;;;;;;7.20;99.90;;;;;;5090758;28;19957;-77
2023/02/19 02:23:33;;;;;;;;;;;7.20;99.90;;;;;;5090534;28;19989;-77
2023/02/19 02:26:00;;;;;;;;;;;;;;;;;;5090717;28;20288;-78
2023/02/19 02:28:49;;;;;;;;;;;7.10;99.90;;;;;;5090606;28;19904;-77
2023/02/19 02:31:21;;;;;;;;;;;7.10;99.90;;;;;;5047756;28;19948;-77
2023/02/19 02:33:53;;;;;;;;;;;7.10;99.90;;;;;;5047912;28;20308;-78
2023/02/19 02:36:20;;;;;;;;;;;7.10;99.90;;;;;;5047587;28;19904;-77
2023/02/19 02:38:47;;;;;;;;;;;7.10;99.90;;;;;;5048154;28;19908;-78
2023/02/19 02:41:14;;;;;;;;;;;7.00;99.90;;;;;;5048273;28;20372;-77
2023/02/19 02:43:39;;;;;;;;;;;7.10;99.90;;;;;;5047822;28;20286;-77
2023/02/19 02:46:05;;;;;;;;;;;;;;;;;;5047922;28;20023;-77
2023/02/19 02:48:31;;;;;;;;;;;;;;;;;;5046331;28;19905;-77
2023/02/19 02:51:18;;;;;;;;;;;7.50;99.90;;;;;;5047533;28;20263;-77
2023/02/19 02:56:29;;;;;;;;;;;7.30;99.90;;;;;;5028101;28;19916;-77
2023/02/19 02:58:57;;;;;;;;;;;7.30;99.90;;;;;;5044277;28;20530;-77
2023/02/19 03:04:13;;;;;;;;;;;;;;;;;;5046887;28;19912;-77
2023/02/19 03:06:40;;;;;;;;;;;7.30;99.90;;;;;;5047373;28;19912;-78
2023/02/19 03:09:09;;;;;;;;;;;7.30;99.90;;;;;;5083122;28;19961;-77
2023/02/19 03:20:06;;;;;;;;;;;7.30;99.90;;;;;;5053900;28;20429;-78
2023/02/19 03:22:33;;;;;;;;;;;7.30;99.90;;;;;;5066712;28;20396;-77
2023/02/19 03:28:11;;;;;;;;;;;7.40;99.90;;;;;;5047529;28;19932;-77
2023/02/19 03:30:42;;;;;;;;;;;7.40;99.90;;;;;;5061620;28;20389;-77
2023/02/19 03:33:25;;;;;;;;;;;7.50;99.90;;;;;;5046904;28;19995;-77
2023/02/19 03:36:01;;;;;;;;;;;7.60;99.90;;;;;;5058013;28;19909;-77
2023/02/19 03:38:30;;;;;;;;;;;7.60;99.90;;;;;;5047627;28;19956;-77
2023/02/19 03:40:56;;;;;;;;;;;7.60;99.90;;;;;;5050973;28;20332;-77
2023/02/19 03:43:41;;;;;;;;;;;7.60;99.90;;;;;;5067084;28;20411;-77
2023/02/19 03:46:10;;;;;;;;;;;7.70;99.90;;;;;;5048205;28;20675;-78
2023/02/19 03:48:36;;;;;;;;;;;;;;;;;;5046242;28;19943;-78
2023/02/19 03:51:13;;;;;;;;;;;7.70;99.90;;;;;;5052929;28;20452;-78
2023/02/19 03:53:39;;;;;;;;;;;;;;;;;;5066936;28;19904;-77
2023/02/19 03:56:05;;;;;;;;;;;;;;;;;;5063089;28;20369;-78
2023/02/19 03:58:31;;;;;;;;;;;;;;;;;;5089753;28;19947;-77
2023/02/19 04:01:05;;;;;;;;;;;7.60;99.90;;;;;;5089112;28;19932;-77
2023/02/19 04:03:39;;;;;;;;;;;7.60;99.90;;;;;;5089491;28;19908;-77
2023/02/19 04:06:09;;;;;;;;;;;7.70;99.90;;;;;;5088795;28;19916;-77
2023/02/19 04:08:35;;;;;;;;;;;;;;;;;;5088074;28;19911;-77
2023/02/19 04:11:01;;;;;;;;;;;7.70;99.90;;;;;;5088977;28;20364;-77
2023/02/19 04:13:31;;;;;;;;;;;7.70;99.90;;;;;;5089698;28;19954;-78
2023/02/19 04:16:01;;;;;;;;;;;7.70;99.90;;;;;;5088880;28;19908;-78
2023/02/19 04:18:29;;;;;;;;;;;7.70;99.90;;;;;;5088799;28;19912;-77
2023/02/19 04:20:55;;;;;;;;;;;7.70;99.90;;;;;;5121501;28;20031;-77
2023/02/19 04:23:23;;;;;;;;;;;7.80;99.90;;;;;;5089037;28;19927;-77
2023/02/19 04:25:52;;;;;;;;;;;7.90;99.90;;;;;;5090706;28;19915;-77
2023/02/19 04:28:17;;;;;;;;;;;7.90;99.90;;;;;;5093131;28;20351;-77
2023/02/19 04:30:43;;;;;;;;;;;8.00;99.90;;;;;;5092928;28;19908;-78
2023/02/19 04:33:08;;;;;;;;;;;8.10;99.90;;;;;;5092983;28;19908;-76
2023/02/19 04:35:34;;;;;;;;;;;8.10;99.90;;;;;;5092835;28;19991;-77
2023/02/19 04:37:59;;;;;;;;;;;8.00;99.90;;;;;;5093363;28;20342;-77
2023/02/19 04:40:25;;;;;;;;;;;8.00;99.90;;;;;;5091174;28;19907;-78
2023/02/19 04:42:51;;;;;;;;;;;8.20;99.90;;;;;;5092812;28;19943;-77
2023/02/19 04:45:17;;;;;;;;;;;;;;;;;;5092575;28;19918;-77
2023/02/19 04:47:43;;;;;;;;;;;8.00;99.90;;;;;;5092601;28;20010;-77
2023/02/19 04:50:08;;;;;;;;;;;8.00;99.90;;;;;;5093036;28;20448;-77
2023/02/19 04:52:34;;;;;;;;;;;7.90;99.90;;;;;;5092514;28;19904;-77
2023/02/19 04:55:00;;;;;;;;;;;7.90;99.90;;;;;;5092892;28;20574;-77
2023/02/19 04:57:25;;;;;;;;;;;7.90;99.90;;;;;;5092568;28;20388;-77
2023/02/19 04:59:51;;;;;;;;;;;8.00;99.90;;;;;;5092526;28;20288;-77
2023/02/19 05:02:16;;;;;;;;;;;8.10;99.90;;;;;;5092433;28;19904;-77
2023/02/19 05:04:42;;;;;;;;;;;8.10;99.90;;;;;;5092669;28;19911;-77
2023/02/19 05:07:07;;;;;;;;;;;8.10;99.90;;;;;;5092138;28;19904;-77
2023/02/19 05:09:33;;;;;;;;;;;8.20;99.90;;;;;;5092939;28;19907;-77
2023/02/19 05:11:58;;;;;;;;;;;8.20;99.90;;;;;;5092518;28;19912;-77
2023/02/19 05:14:24;;;;;;;;;;;8.20;99.90;;;;;;5092151;28;19927;-77
2023/02/19 05:16:50;;;;;;;;;;;8.20;99.90;;;;;;5091815;28;19908;-77
2023/02/19 05:19:15;;;;;;;;;;;8.30;99.90;;;;;;5091020;28;20292;-77
2023/02/19 05:21:41;;;;;;;;;;;8.30;99.90;;;;;;5092092;28;19923;-77
2023/02/19 05:24:06;;;;;;;;;;;8.40;99.90;;;;;;5092147;28;19911;-77
2023/02/19 05:26:32;;;;;;;;;;;8.40;99.90;;;;;;5092131;28;19985;-77
2023/02/19 05:28:58;;;;;;;;;;;8.40;99.90;;;;;;5091841;28;19991;-77
2023/02/19 05:31:23;;;;;;;;;;;8.50;99.90;;;;;;5092123;28;19904;-77
2023/02/19 05:33:49;;;;;;;;;;;8.50;99.90;;;;;;5091623;28;19908;-78
2023/02/19 05:36:15;;;;;;;;;;;;;;;;;;5091200;28;19908;-78
2023/02/19 05:38:41;;;;;;;;;;;8.40;99.90;;;;;;5091300;28;19949;-77
2023/02/19 05:41:07;;;;;;;;;;;8.40;99.90;;;;;;5091925;28;19962;-77
2023/02/19 05:43:32;;;;;;;;;;;8.40;99.90;;;;;;5091635;28;19915;-77
2023/02/19 05:45:58;;;;;;;;;;;8.30;99.90;;;;;;5092018;28;19912;-77
2023/02/19 05:48:23;;;;;;;;;;;8.30;99.90;;;;;;5091518;28;19904;-77
2023/02/19 05:50:48;;;;;;;;;;;8.30;99.90;;;;;;5091579;28;19904;-77
2023/02/19 05:53:14;;;;;;;;;;;8.20;99.90;;;;;;5075462;28;19919;-77
2023/02/19 05:55:39;;;;;;;;;;;8.30;99.90;;;;;;5091731;28;20387;-77
2023/02/19 05:58:05;;;;;;;;;;;;;;;;;;5091658;28;19908;-78
2023/02/19 06:00:31;;;;;;;;;;;8.20;99.90;;;;;;5091632;28;19908;-77
2023/02/19 06:02:57;;;;;;;;;;;8.10;99.90;;;;;;5091913;28;19904;-77
2023/02/19 06:05:22;;;;;;;;;;;8.10;99.90;;;;;;5091350;28;19935;-77
2023/02/19 06:07:49;;;;;;;;;;;8.00;99.90;;;;;;5091673;28;19997;-77
2023/02/19 06:10:14;;;;;;;;;;;8.10;99.90;;;;;;5090909;28;20364;-77
2023/02/19 06:12:40;;;;;;;;;;;8.10;99.90;;;;;;5091224;28;20284;-77
2023/02/19 06:15:06;;;;;;;;;;;8.10;99.90;;;;;;5090952;28;19911;-76
2023/02/19 06:17:32;;;;;;;;;;;8.00;99.90;;;;;;5091338;28;19911;-77
2023/02/19 06:19:57;;;;;;;;;;;7.90;99.90;;;;;;5091084;28;20276;-77
2023/02/19 06:22:23;;;;;;;;;;;7.70;99.90;;;;;;5090904;28;19916;-77
2023/02/19 06:24:48;;;;;;;;;;;7.50;99.90;;;;;;5090959;28;19940;-77
2023/02/19 06:27:14;;;;;;;;;;;7.50;99.90;;;;;;5089447;28;20125;-77
2023/02/19 06:29:40;;;;;;;;;;;;;;;;;;5090683;28;19912;-77
2023/02/19 06:32:06;;;;;;;;;;;7.20;99.90;;;;;;5089153;28;19908;-77
2023/02/19 06:34:31;;;;;;;;;;;;;;;;;;5089312;28;20434;-77
2023/02/19 06:36:57;;;;;;;;;;;7.00;99.90;;;;;;5090759;28;19936;-78
2023/02/19 06:39:23;;;;;;;;;;;7.10;99.90;;;;;;5090789;28;19940;-77
2023/02/19 06:41:49;;;;;;;;;;;7.10;99.90;;;;;;5090351;28;19918;-77
2023/02/19 06:44:15;;;;;;;;;;;7.00;99.90;;;;;;5089399;28;20011;-77
2023/02/19 06:46:40;;;;;;;;;;;7.10;99.90;;;;;;5090137;28;19916;-77
2023/02/19 06:49:06;;;;;;;;;;;7.20;99.90;;;;;;5089718;28;19908;-77
2023/02/19 06:51:32;;;;;;;;;;;7.40;99.90;;;;;;5089583;28;19904;-77
2023/02/19 06:53:58;;;;;;;;;;;7.50;99.90;;;;;;5090318;28;19935;-77
2023/02/19 06:56:23;;;;;;;;;;;7.70;99.90;;;;;;5090209;28;19999;-77
2023/02/19 06:58:49;;;;;;;;;;;7.80;99.90;;;;;;5090845;28;20273;-77
2023/02/19 07:01:15;;;;;;;;;;;7.90;99.90;;;;;;5090103;28;20019;-78
2023/02/19 07:03:40;;;;;;;;;;;8.00;99.90;;;;;;5090344;28;20435;-77
2023/02/19 07:06:09;;;;;;;;;;;;;;;;;;5089967;28;19923;-77
2023/02/19 07:08:34;;;;;;;;;;;8.20;99.90;;;;;;5090427;28;19942;-77
2023/02/19 07:10:59;;;;;;;;;;;8.20;99.90;;;;;;5088185;28;19943;-76
2023/02/19 07:13:25;;;;;;;;;;;8.40;99.90;;;;;;5090176;28;19914;-77
2023/02/19 07:15:56;;;;;;;;;;;8.50;99.90;;;;;;5090043;28;20360;-77
2023/02/19 07:18:21;;;;;;;;;;;8.60;99.90;;;;;;5086877;28;19912;-77
2023/02/19 07:20:47;;;;;;;;;;;8.70;99.90;;;;;;5089931;28;19965;-77
2023/02/19 07:23:13;;;;;;;;;;;;;;;;;;5089813;28;19926;-77
2023/02/19 07:25:40;;;;;;;;;;;8.80;99.90;;;;;;5088652;28;19973;-77
2023/02/19 07:28:06;;;;;;;;;;;8.90;99.90;;;;;;5089241;28;19908;-77
2023/02/19 07:30:31;;;;;;;;;;;8.80;99.90;;;;;;5090206;28;20407;-78
2023/02/19 07:32:57;;;;;;;;;;;8.80;99.90;;;;;;5088221;28;20357;-78
2023/02/19 07:35:22;;;;;;;;;;;8.90;99.90;;;;;;5089908;28;19908;-77
2023/02/19 07:37:48;;;;;;;;;;;9.00;99.90;;;;;;5089563;28;19998;-77
2023/02/19 07:40:13;;;;;;;;;;;9.10;99.90;;;;;;5089665;28;19908;-77
2023/02/19 07:42:39;;;;;;;;;;;9.10;99.90;;;;;;5089437;28;20345;-77
2023/02/19 07:45:04;;;;;;;;;;;9.20;99.90;;;;;;5089838;28;19915;-77
2023/02/19 07:47:30;;;;;;;;;;;9.20;99.90;;;;;;5088911;28;19954;-77
2023/02/19 07:49:55;;;;;;;;;;;9.30;99.90;;;;;;5089778;28;20000;-77
2023/02/19 07:52:21;;;;;;;;;;;9.30;99.90;;;;;;5088886;28;19987;-77
2023/02/19 07:54:47;;;;;;;;;;;9.50;99.90;;;;;;5089526;28;19904;-77
2023/02/19 07:57:13;;;;;;;;;;;9.80;99.90;;;;;;5089414;28;19908;-77
2023/02/19 07:59:38;;;;;;;;;;;10.00;99.90;;;;;;5089043;28;19912;-77
2023/02/19 08:04:53;;;;;;;;;;;11.40;99.90;;;;;;5089168;28;19914;-77
2023/02/19 08:07:18;;;;;;;;;;;11.60;99.30;;;;;;5087715;28;19903;-77
2023/02/19 08:09:44;;;;;;;;;;;12.10;97.50;;;;;;5087667;28;19998;-77
2023/02/19 08:14:56;;;;;;;;;;;12.20;96.90;;;;;;5088888;28;19926;-77
2023/02/19 08:17:22;;;;;;;;;;;12.00;96.90;;;;;;5089345;28;19911;-77
2023/02/19 08:19:47;;;;;;;;;;;11.70;98.30;;;;;;5088730;28;19912;-77
2023/02/19 08:22:15;;;;;;;;;;;11.60;98.80;;;;;;5070647;28;19920;-78
2023/02/19 08:24:41;;;;;;;;;;;11.50;99.00;;;;;;5088732;28;19912;-77
2023/02/19 08:27:07;;;;;;;;;;;11.40;99.30;;;;;;5089565;28;19919;-77
2023/02/19 08:29:33;;;;;;;;;;;11.40;99.60;;;;;;5089071;28;19995;-76
2023/02/19 08:31:59;;;;;;;;;;;11.10;99.80;;;;;;5089110;28;19911;-76
2023/02/19 08:34:24;;;;;;;;;;;11.10;99.90;;;;;;5089350;28;19961;-76
2023/02/19 08:36:50;;;;;;;;;;;11.10;99.90;;;;;;5089064;28;20301;-76
2023/02/19 08:39:15;;;;;;;;;;;11.10;99.90;;;;;;5089009;28;19904;-76
2023/02/19 08:41:41;;;;;;;;;;;11.20;99.90;;;;;;5088689;28;19904;-76
2023/02/19 08:44:06;;;;;;;;;;;11.10;99.90;;;;;;5089010;28;20295;-76
2023/02/19 08:46:32;;;;;;;;;;;11.10;99.90;;;;;;5088595;28;20346;-76
2023/02/19 08:48:57;;;;;;;;;;;11.00;99.90;;;;;;5088992;28;19912;-77
2023/02/19 08:51:23;;;;;;;;;;;;;;;;;;5088463;28;19904;-76
2023/02/19 08:53:49;;;;;;;;;;;11.00;99.90;;;;;;5088910;28;19908;-76
2023/02/19 08:56:16;;;;;;;;;;;10.90;99.90;;;;;;5088860;28;19908;-75
2023/02/19 08:58:41;;;;;;;;;;;10.90;99.90;;;;;;5087336;28;19904;-75
2023/02/19 09:01:11;;;;;;;;;;;11.00;99.90;;;;;;5088613;28;20388;-76
2023/02/19 09:03:36;;;;;;;;;;;10.90;99.90;;;;;;5068855;28;19934;-77
2023/02/19 09:06:02;;;;;;;;;;;11.00;99.90;;;;;;5084198;28;19912;-76
2023/02/19 09:08:27;;;;;;;;;;;11.20;99.90;;;;;;5089299;28;19908;-77
2023/02/19 09:10:56;;;;;;;;;;;11.40;99.80;;;;;;5089106;28;19904;-77
2023/02/19 09:13:22;;;;;;;;;;;11.40;99.90;;;;;;5093055;28;20275;-77
2023/02/19 09:15:47;;;;;;;;;;;11.70;99.30;;;;;;5092339;28;19990;-76
2023/02/19 09:18:13;;;;;;;;;;;11.60;98.90;;;;;;5092508;28;19904;-77
2023/02/19 09:20:38;;;;;;;;;;;11.50;99.20;;;;;;5091426;28;20376;-76
2023/02/19 09:23:04;;;;;;;;;;;11.50;99.40;;;;;;5092419;28;19995;-76
2023/02/19 09:25:29;;;;;;;;;;;11.60;99.30;;;;;;5091941;28;20685;-77
2023/02/19 09:27:55;;;;;;;;;;;11.60;99.10;;;;;;5091190;28;19911;-77
2023/02/19 09:30:20;;;;;;;;;;;11.60;99.00;;;;;;5091801;28;19912;-76
2023/02/19 09:32:46;;;;;;;;;;;11.70;97.90;;;;;;5092053;28;20399;-76
2023/02/19 09:35:11;;;;;;;;;;;11.80;98.30;;;;;;5091660;28;19915;-77
2023/02/19 09:37:37;;;;;;;;;;;11.90;98.10;;;;;;5091441;28;19904;-77
2023/02/19 09:40:02;;;;;;;;;;;11.90;97.80;;;;;;5092562;28;20369;-77
2023/02/19 09:42:30;;;;;;;;;;;11.90;98.00;;;;;;5091508;28;20666;-77
2023/02/19 09:44:57;;;;;;;;;;;12.10;97.60;;;;;;5090614;28;20452;-76
2023/02/19 09:47:23;;;;;;;;;;;12.20;97.50;;;;;;5091590;28;19904;-77
2023/02/19 09:49:54;;;;;;;;;;;12.30;97.40;;;;;;5091496;28;19912;-76
2023/02/19 09:52:28;;;;;;;;;;;12.30;96.20;;;;;;5091391;28;19908;-76
2023/02/19 09:54:58;;;;;;;;;;;12.60;95.90;;;;;;5091572;28;19908;-77
2023/02/19 09:57:24;;;;;;;;;;;12.90;94.60;;;;;;5091082;28;19908;-76
2023/02/19 09:59:52;;;;;;;;;;;13.10;93.60;;;;;;5091412;28;20365;-76
2023/02/19 10:02:19;;;;;;;;;;;13.30;89.60;;;;;;5091082;28;19911;-77
2023/02/19 10:04:45;;;;;;;;;;;13.40;91.40;;;;;;5089857;28;19904;-77
2023/02/19 10:07:11;;;;;;;;;;;;;;;;;;5090936;28;19957;-77
2023/02/19 10:09:37;;;;;;;;;;;13.50;90.00;;;;;;5091254;28;19998;-77
2023/02/19 10:12:11;;;;;;;;;;;13.50;88.30;;;;;;5090337;28;19910;-77
2023/02/19 10:14:40;;;;;;;;;;;13.50;90.80;;;;;;5091517;28;19908;-77
2023/02/19 10:17:08;;;;;;;;;;;13.50;85.40;;;;;;5090946;28;19912;-77
2023/02/19 10:19:34;;;;;;;;;;;13.30;85.20;;;;;;5091138;28;19911;-77
2023/02/19 10:22:02;;;;;;;;;;;13.10;87.40;;;;;;5090656;28;19920;-76
2023/02/19 10:24:28;;;;;;;;;;;13.00;86.70;;;;;;5090222;28;19915;-77
2023/02/19 10:26:54;;;;;;;;;;;13.00;85.10;;;;;;5090995;28;19912;-76
2023/02/19 10:29:20;;;;;;;;;;;12.70;87.20;;;;;;5089511;28;19914;-77
2023/02/19 10:31:46;;;;;;;;;;;12.60;87.60;;;;;;5090635;28;19908;-77
2023/02/19 10:34:20;;;;;;;;;;;12.40;89.30;;;;;;5090556;28;20296;-77
2023/02/19 10:36:47;;;;;;;;;;;12.40;90.00;;;;;;5070736;28;19940;-76
2023/02/19 10:39:22;;;;;;;;;;;12.50;90.80;;;;;;5086830;28;19903;-76
2023/02/19 10:41:49;;;;;;;;;;;12.90;90.20;;;;;;5090338;28;19961;-76
2023/02/19 10:44:21;;;;;;;;;;;13.00;89.40;;;;;;5090173;28;19908;-77
2023/02/19 10:46:49;;;;;;;;;;;13.20;88.30;;;;;;5090171;28;19919;-76
2023/02/19 10:49:36;;;;;;;;;;;13.20;86.30;;;;;;5089825;28;19999;-77
2023/02/19 10:52:22;;;;;;;;;;;13.10;87.00;;;;;;5090062;28;19904;-77
2023/02/19 10:55:07;;;;;;;;;;;13.10;87.40;;;;;;5089696;28;19907;-77
2023/02/19 10:57:33;;;;;;;;;;;13.00;88.30;;;;;;5089776;28;19908;-77
2023/02/19 11:00:22;;;;;;;;;;;12.90;88.00;;;;;;5090072;28;19914;-76
2023/02/19 11:02:47;;;;;;;;;;;12.80;88.90;;;;;;5064208;28;20381;-77
2023/02/19 11:05:16;;;;;;;;;;;12.70;90.20;;;;;;5087222;28;19922;-77
2023/02/19 11:07:50;;;;;;;;;;;12.70;90.50;;;;;;5070039;28;19911;-77
2023/02/19 11:10:25;;;;;;;;;;;12.60;90.70;;;;;;5086069;28;19995;-76
2023/02/19 11:12:52;;;;;;;;;;;12.70;90.70;;;;;;5090085;28;19915;-76
2023/02/19 11:15:22;;;;;;;;;;;12.90;90.80;;;;;;5089620;28;20482;-76
2023/02/19 11:17:59;;;;;;;;;;;13.00;90.70;;;;;;5089779;28;20338;-77
2023/02/19 11:20:25;;;;;;;;;;;12.90;89.90;;;;;;5089383;28;20577;-76
2023/02/19 11:22:50;;;;;;;;;;;13.00;89.90;;;;;;5089760;28;19926;-76
2023/02/19 11:25:16;;;;;;;;;;;13.10;89.70;;;;;;5089654;28;20023;-77
2023/02/19 11:28:05;;;;;;;;;;;13.10;88.40;;;;;;5089619;28;19927;-77
2023/02/19 11:30:31;;;;;;;;;;;13.30;88.80;;;;;;5088868;28;20390;-76
2023/02/19 11:33:21;;;;;;;;;;;13.30;88.60;;;;;;5089706;28;19903;-76
2023/02/19 11:35:47;;;;;;;;;;;13.20;88.20;;;;;;5089241;28;20285;-77
2023/02/19 11:38:14;;;;;;;;;;;13.10;88.20;;;;;;5089696;28;19911;-77
2023/02/19 11:40:43;;;;;;;;;;;12.90;88.50;;;;;;5089091;28;19915;-76
2023/02/19 11:43:12;;;;;;;;;;;12.80;90.00;;;;;;5089482;28;19908;-77
2023/02/19 11:45:47;;;;;;;;;;;12.80;90.80;;;;;;5089052;28;19942;-76
2023/02/19 11:48:12;;;;;;;;;;;12.70;90.50;;;;;;5089407;28;20008;-77
2023/02/19 11:50:47;;;;;;;;;;;12.70;91.10;;;;;;5089207;28;19989;-76
2023/02/19 11:53:12;;;;;;;;;;;12.60;91.30;;;;;;5089228;28;19904;-77
2023/02/19 11:55:56;;;;;;;;;;;12.60;91.20;;;;;;5089039;28;19904;-76
2023/02/19 11:58:40;;;;;;;;;;;12.70;91.50;;;;;;5089320;28;19904;-77
2023/02/19 12:01:06;;;;;;;;;;;;;;;;;;5088828;28;19911;-77
2023/02/19 12:03:46;;;;;;;;;;;12.90;90.40;;;;;;5089358;28;19904;-76
2023/02/19 12:06:18;;;;;;;;;;;13.00;90.40;;;;;;5088529;28;19947;-77
2023/02/19 12:09:09;;;;;;;;;;;13.30;90.00;;;;;;5089012;28;19986;-77
2023/02/19 12:11:34;;;;;;;;;;;13.20;87.40;;;;;;5089419;28;19908;-77
2023/02/19 12:14:24;;;;;;;;;;;13.60;88.00;;;;;;5087917;28;19908;-77
2023/02/19 12:16:57;;;;;;;;;;;18.00;90.20;;;;;;5088922;28;20510;-76
2023/02/19 12:19:41;;;;;;;;;;;13.20;84.80;;;;;;5089798;28;19904;-77
2023/02/19 12:22:27;;;;;;;;;;;13.40;85.70;;;;;;5088860;28;19916;-77
2023/02/19 12:24:53;;;;;;;;;;;13.20;85.50;;;;;;5045912;28;19947;-78
2023/02/19 12:27:37;;;;;;;;;;;13.30;85.10;;;;;;5046321;28;20413;-77
2023/02/19 12:30:05;;;;;;;;;;;13.20;85.10;;;;;;5046261;28;19912;-77
2023/02/19 12:32:33;;;;;;;;;;;13.10;86.50;;;;;;5029448;28;19975;-77
2023/02/19 12:34:59;;;;;;;;;;;13.10;86.60;;;;;;5046262;28;20392;-77
2023/02/19 12:37:27;;;;;;;;;;;13.20;86.50;;;;;;5046479;28;19917;-76
2023/02/19 12:40:16;;;;;;;;;;;13.20;86.20;;;;;;5029567;28;20408;-77
2023/02/19 12:42:41;;;;;;;;;;;13.30;86.00;;;;;;5045668;28;19905;-76
2023/02/19 12:45:15;;;;;;;;;;;13.30;86.40;;;;;;5045717;28;19954;-77
2023/02/19 12:47:42;;;;;;;;;;;13.40;86.20;;;;;;5048761;28;19915;-77
2023/02/19 12:50:17;;;;;;;;;;;13.40;85.50;;;;;;5050150;28;19916;-76
2023/02/19 12:52:45;;;;;;;;;;;13.50;84.40;;;;;;5049685;28;20573;-76
2023/02/19 12:55:20;;;;;;;;;;;13.50;84.70;;;;;;5050134;28;20332;-77
2023/02/19 12:57:45;;;;;;;;;;;13.60;84.60;;;;;;5048328;28;20441;-76
2023/02/19 13:00:29;;;;;;;;;;;13.60;84.00;;;;;;5024806;28;19999;-76
2023/02/19 13:02:55;;;;;;;;;;;13.80;82.00;;;;;;5086660;28;19923;-77
2023/02/19 13:05:34;;;;;;;;;;;13.80;82.60;;;;;;5092679;28;19916;-77
2023/02/19 13:08:13;;;;;;;;;;;13.90;80.90;;;;;;5092679;28;20343;-76
2023/02/19 13:10:43;;;;;;;;;;;13.90;81.40;;;;;;5082562;28;19904;-77
2023/02/19 13:13:14;;;;;;;;;;;13.90;78.60;;;;;;5091961;28;20365;-77
2023/02/19 13:15:47;;;;;;;;;;;13.90;80.00;;;;;;5081107;28;19919;-76
2023/02/19 13:18:15;;;;;;;;;;;13.90;80.70;;;;;;5091817;28;19938;-76
2023/02/19 13:20:41;;;;;;;;;;;13.90;81.20;;;;;;5091491;28;19943;-77
2023/02/19 13:26:09;;;;;;;;;;;14.30;79.90;;;;;;5071901;28;19935;-77
2023/02/19 13:28:46;;;;;;;;;;;14.40;78.40;;;;;;5077029;28;20284;-77
2023/02/19 13:31:23;;;;;;;;;;;14.40;78.50;;;;;;5081036;28;20400;-77
2023/02/19 13:33:52;;;;;;;;;;;14.60;76.50;;;;;;5091898;28;19912;-77
2023/02/19 13:36:21;;;;;;;;;;;14.70;76.10;;;;;;5090345;28;19955;-76
2023/02/19 13:38:47;;;;;;;;;;;14.80;76.20;;;;;;5091929;28;19999;-77
2023/02/19 13:41:39;;;;;;;;;;;14.90;74.90;;;;;;5091558;28;20403;-77
2023/02/19 13:44:07;;;;;;;;;;;14.70;74.60;;;;;;5089210;28;19950;-77
2023/02/19 13:46:40;;;;;;;;;;;14.60;75.20;;;;;;5091599;28;19916;-77
2023/02/19 13:49:24;;;;;;;;;;;14.50;74.60;;;;;;5091410;28;19904;-77
2023/02/19 13:51:53;;;;;;;;;;;14.50;74.20;;;;;;5091177;28;19935;-77
2023/02/19 13:54:39;;;;;;;;;;;16.00;75.30;;;;;;5091518;28;19908;-77
2023/02/19 13:57:25;;;;;;;;;;;14.40;74.10;;;;;;5079652;28;20010;-76
2023/02/19 13:59:51;;;;;;;;;;;14.50;73.20;;;;;;5090529;28;19915;-76
2023/02/19 14:02:19;;;;;;;;;;;14.50;72.10;;;;;;5091405;28;19904;-77
2023/02/19 14:04:50;;;;;;;;;;;14.40;72.90;;;;;;5088534;28;19952;-77
2023/02/19 14:07:15;;;;;;;;;;;14.70;72.90;;;;;;5091107;28;20050;-77
2023/02/19 14:09:43;;;;;;;;;;;14.90;72.10;;;;;;5091485;28;20370;-77
2023/02/19 14:12:09;;;;;;;;;;;15.00;69.40;;;;;;5087656;28;19911;-77
2023/02/19 14:14:38;;;;;;;;;;;15.00;68.20;;;;;;5091403;28;19908;-77
2023/02/19 14:17:23;;;;;;;;;;;14.90;69.00;;;;;;5090701;28;19912;-76
2023/02/19 14:19:49;;;;;;;;;;;14.80;68.80;;;;;;5090897;28;19915;-77
2023/02/19 14:22:33;;;;;;;;;;;14.80;68.40;;;;;;5090322;28;19920;-77
2023/02/19 14:24:59;;;;;;;;;;;15.00;68.50;;;;;;5090576;28;19908;-76
2023/02/19 14:27:24;;;;;;;;;;;15.80;66.80;;;;;;5090773;28;19961;-78
2023/02/19 14:29:50;;;;;;;;;;;15.90;65.50;;;;;;5091010;28;19946;-77
2023/02/19 14:32:16;;;;;;;;;;;;;;;;;;5089907;28;19914;-76
2023/02/19 14:34:44;;;;;;;;;;;15.50;65.10;;;;;;5090913;28;19904;-77
2023/02/19 14:37:15;;;;;;;;;;;15.40;66.90;;;;;;5089789;28;19955;-77
2023/02/19 14:39:42;;;;;;;;;;;14.80;67.30;;;;;;5090542;28;20314;-76
2023/02/19 14:42:15;;;;;;;;;;;14.40;68.10;;;;;;5090682;28;20121;-77
2023/02/19 14:44:46;;;;;;;;;;;14.40;69.10;;;;;;5090615;28;19908;-77
2023/02/19 14:47:17;;;;;;;;;;;14.40;69.70;;;;;;5090213;28;20303;-76
2023/02/19 14:49:42;;;;;;;;;;;14.30;69.30;;;;;;5090540;28;19904;-77
2023/02/19 14:52:39;;;;;;;;;;;14.80;69.10;;;;;;5089655;28;20372;-76
2023/02/19 14:55:06;;;;;;;;;;;15.60;67.80;;;;;;5089192;28;19961;-76
2023/02/19 14:57:40;;;;;;;;;;;16.10;65.20;;;;;;5090206;28;20002;-76
2023/02/19 15:00:21;;;;;;;;;;;15.60;64.30;;;;;;5087215;28;19908;-77
2023/02/19 15:02:47;;;;;;;;;;;15.30;64.90;;;;;;5090174;28;19904;-77
2023/02/19 15:05:22;;;;;;;;;;;14.80;65.90;;;;;;5090200;28;19904;-77
2023/02/19 15:07:48;;;;;;;;;;;14.40;66.70;;;;;;5090253;28;19911;-77
2023/02/19 15:10:14;;;;;;;;;;;14.20;67.20;;;;;;5088921;28;20463;-77